sensor_id;sensor_type;location;lat;lon;timestamp;P1;durP1;ratioP1;P2;durP2;ratioP2
48685;SDS011;34485;51.536;3.816;2023-11-21T00:01:38;25.50;;;6.55;;
48685;SDS011;34485;51.536;3.816;2023-11-21T00:04:03;24.53;;;7.30;;
48685;SDS011;34485;51.536;3.816;2023-11-21T00:08:57;18.97;;;6.93;;
48685;SDS011;34485;51.536;3.816;2023-11-21T00:11:22;23.25;;;7.03;;
48685;SDS011;34485;51.536;3.816;2023-11-21T00:13:49;22.67;;;7.45;;
48685;SDS011;34485;51.536;3.816;2023-11-21T00:16:15;21.33;;;6.93;;
48685;SDS011;34485;51.536;3.816;2023-11-21T00:18:41;21.35;;;6.55;;
48685;SDS011;34485;51.536;3.816;2023-11-21T00:21:07;23.73;;;7.30;;
48685;SDS011;34485;51.536;3.816;2023-11-21T00:26:04;15.50;;;6.28;;
48685;SDS011;34485;51.536;3.816;2023-11-21T00:28:30;23.98;;;5.70;;
48685;SDS011;34485;51.536;3.816;2023-11-21T00:30:56;22.87;;;5.73;;
48685;SDS011;34485;51.536;3.816;2023-11-21T00:33:21;13.40;;;4.93;;
48685;SDS011;34485;51.536;3.816;2023-11-21T00:38:16;24.05;;;5.78;;
48685;SDS011;34485;51.536;3.816;2023-11-21T00:40:44;24.08;;;6.10;;
48685;SDS011;34485;51.536;3.816;2023-11-21T00:43:10;18.20;;;5.80;;
48685;SDS011;34485;51.536;3.816;2023-11-21T00:45:36;18.58;;;5.75;;
48685;SDS011;34485;51.536;3.816;2023-11-21T00:48:02;18.87;;;5.50;;
48685;SDS011;34485;51.536;3.816;2023-11-21T00:50:30;16.17;;;6.20;;
48685;SDS011;34485;51.536;3.816;2023-11-21T00:52:55;19.55;;;5.32;;
48685;SDS011;34485;51.536;3.816;2023-11-21T00:55:21;22.00;;;5.77;;
48685;SDS011;34485;51.536;3.816;2023-11-21T00:57:47;13.02;;;4.88;;
48685;SDS011;34485;51.536;3.816;2023-11-21T01:00:13;15.03;;;4.67;;
48685;SDS011;34485;51.536;3.816;2023-11-21T01:02:42;18.55;;;5.13;;
48685;SDS011;34485;51.536;3.816;2023-11-21T01:05:11;18.45;;;5.00;;
48685;SDS011;34485;51.536;3.816;2023-11-21T01:07:38;17.80;;;4.20;;
48685;SDS011;34485;51.536;3.816;2023-11-21T01:10:04;12.67;;;5.70;;
48685;SDS011;34485;51.536;3.816;2023-11-21T01:12:36;11.10;;;5.05;;
48685;SDS011;34485;51.536;3.816;2023-11-21T01:15:03;12.35;;;4.72;;
48685;SDS011;34485;51.536;3.816;2023-11-21T01:17:32;16.75;;;5.53;;
48685;SDS011;34485;51.536;3.816;2023-11-21T01:19:59;13.63;;;5.72;;
48685;SDS011;34485;51.536;3.816;2023-11-21T01:22:25;10.40;;;5.13;;
48685;SDS011;34485;51.536;3.816;2023-11-21T01:24:52;21.88;;;6.07;;
48685;SDS011;34485;51.536;3.816;2023-11-21T01:27:18;17.17;;;6.50;;
48685;SDS011;34485;51.536;3.816;2023-11-21T01:29:44;20.30;;;6.77;;
48685;SDS011;34485;51.536;3.816;2023-11-21T01:32:10;11.25;;;4.93;;
48685;SDS011;34485;51.536;3.816;2023-11-21T01:34:36;8.93;;;5.78;;
48685;SDS011;34485;51.536;3.816;2023-11-21T01:37:02;8.95;;;4.88;;
48685;SDS011;34485;51.536;3.816;2023-11-21T01:39:29;9.10;;;4.85;;
48685;SDS011;34485;51.536;3.816;2023-11-21T01:41:56;15.93;;;5.93;;
48685;SDS011;34485;51.536;3.816;2023-11-21T01:44:23;15.02;;;6.05;;
48685;SDS011;34485;51.536;3.816;2023-11-21T01:46:49;17.88;;;6.60;;
48685;SDS011;34485;51.536;3.816;2023-11-21T01:49:16;14.20;;;6.43;;
48685;SDS011;34485;51.536;3.816;2023-11-21T01:51:43;21.13;;;6.88;;
48685;SDS011;34485;51.536;3.816;2023-11-21T01:54:14;13.63;;;7.33;;
48685;SDS011;34485;51.536;3.816;2023-11-21T01:56:46;18.90;;;7.10;;
48685;SDS011;34485;51.536;3.816;2023-11-21T01:59:18;15.70;;;7.20;;
48685;SDS011;34485;51.536;3.816;2023-11-21T02:01:46;20.60;;;7.57;;
48685;SDS011;34485;51.536;3.816;2023-11-21T02:04:12;12.87;;;6.70;;
48685;SDS011;34485;51.536;3.816;2023-11-21T02:06:38;16.35;;;6.75;;
48685;SDS011;34485;51.536;3.816;2023-11-21T02:09:04;20.97;;;8.37;;
48685;SDS011;34485;51.536;3.816;2023-11-21T02:11:30;20.17;;;6.97;;
48685;SDS011;34485;51.536;3.816;2023-11-21T02:13:57;12.43;;;6.13;;
48685;SDS011;34485;51.536;3.816;2023-11-21T02:16:24;20.55;;;7.15;;
48685;SDS011;34485;51.536;3.816;2023-11-21T02:18:51;16.50;;;6.63;;
48685;SDS011;34485;51.536;3.816;2023-11-21T02:21:17;17.75;;;6.90;;
48685;SDS011;34485;51.536;3.816;2023-11-21T02:23:44;15.55;;;6.65;;
48685;SDS011;34485;51.536;3.816;2023-11-21T02:26:11;17.98;;;7.10;;
48685;SDS011;34485;51.536;3.816;2023-11-21T02:28:37;16.03;;;6.33;;
48685;SDS011;34485;51.536;3.816;2023-11-21T02:31:04;20.55;;;7.68;;
48685;SDS011;34485;51.536;3.816;2023-11-21T02:33:30;22.42;;;7.90;;
48685;SDS011;34485;51.536;3.816;2023-11-21T02:36:02;25.35;;;7.75;;
48685;SDS011;34485;51.536;3.816;2023-11-21T02:38:28;15.65;;;7.75;;
48685;SDS011;34485;51.536;3.816;2023-11-21T02:40:55;17.43;;;6.70;;
48685;SDS011;34485;51.536;3.816;2023-11-21T02:43:23;20.30;;;8.25;;
48685;SDS011;34485;51.536;3.816;2023-11-21T02:45:48;17.60;;;7.60;;
48685;SDS011;34485;51.536;3.816;2023-11-21T02:48:14;21.75;;;7.65;;
48685;SDS011;34485;51.536;3.816;2023-11-21T02:50:39;15.57;;;7.70;;
48685;SDS011;34485;51.536;3.816;2023-11-21T02:53:05;28.97;;;7.90;;
48685;SDS011;34485;51.536;3.816;2023-11-21T02:55:31;18.80;;;9.13;;
48685;SDS011;34485;51.536;3.816;2023-11-21T02:58:00;20.80;;;7.78;;
48685;SDS011;34485;51.536;3.816;2023-11-21T03:00:26;20.17;;;8.15;;
48685;SDS011;34485;51.536;3.816;2023-11-21T03:02:51;26.13;;;8.70;;
48685;SDS011;34485;51.536;3.816;2023-11-21T03:05:20;29.75;;;8.80;;
48685;SDS011;34485;51.536;3.816;2023-11-21T03:10:15;31.33;;;8.93;;
48685;SDS011;34485;51.536;3.816;2023-11-21T03:12:41;29.77;;;9.80;;
48685;SDS011;34485;51.536;3.816;2023-11-21T03:15:07;22.48;;;7.90;;
48685;SDS011;34485;51.536;3.816;2023-11-21T03:17:33;46.08;;;9.88;;
48685;SDS011;34485;51.536;3.816;2023-11-21T03:19:59;27.30;;;8.70;;
48685;SDS011;34485;51.536;3.816;2023-11-21T03:22:25;45.58;;;9.40;;
48685;SDS011;34485;51.536;3.816;2023-11-21T03:24:51;28.13;;;8.30;;
48685;SDS011;34485;51.536;3.816;2023-11-21T03:29:47;24.00;;;9.00;;
48685;SDS011;34485;51.536;3.816;2023-11-21T03:32:13;27.73;;;8.50;;
48685;SDS011;34485;51.536;3.816;2023-11-21T03:34:55;35.83;;;9.93;;
48685;SDS011;34485;51.536;3.816;2023-11-21T03:37:22;36.15;;;9.05;;
48685;SDS011;34485;51.536;3.816;2023-11-21T03:39:48;27.00;;;7.90;;
48685;SDS011;34485;51.536;3.816;2023-11-21T03:42:14;31.43;;;8.83;;
48685;SDS011;34485;51.536;3.816;2023-11-21T03:44:40;26.38;;;7.68;;
48685;SDS011;34485;51.536;3.816;2023-11-21T03:47:05;19.13;;;7.57;;
48685;SDS011;34485;51.536;3.816;2023-11-21T03:49:31;31.55;;;7.97;;
48685;SDS011;34485;51.536;3.816;2023-11-21T03:51:56;23.27;;;8.03;;
48685;SDS011;34485;51.536;3.816;2023-11-21T03:54:22;17.40;;;8.17;;
48685;SDS011;34485;51.536;3.816;2023-11-21T03:56:48;22.35;;;8.38;;
48685;SDS011;34485;51.536;3.816;2023-11-21T03:59:14;19.57;;;8.40;;
48685;SDS011;34485;51.536;3.816;2023-11-21T04:01:39;19.02;;;8.07;;
48685;SDS011;34485;51.536;3.816;2023-11-21T04:04:05;18.70;;;8.03;;
48685;SDS011;34485;51.536;3.816;2023-11-21T04:06:30;29.10;;;8.20;;
48685;SDS011;34485;51.536;3.816;2023-11-21T04:08:57;23.37;;;8.33;;
48685;SDS011;34485;51.536;3.816;2023-11-21T04:11:23;33.65;;;9.32;;
48685;SDS011;34485;51.536;3.816;2023-11-21T04:13:49;36.93;;;8.17;;
48685;SDS011;34485;51.536;3.816;2023-11-21T04:16:14;55.70;;;8.55;;
48685;SDS011;34485;51.536;3.816;2023-11-21T04:18:40;84.20;;;10.63;;
48685;SDS011;34485;51.536;3.816;2023-11-21T04:21:06;69.20;;;10.48;;
48685;SDS011;34485;51.536;3.816;2023-11-21T04:23:32;62.60;;;9.67;;
48685;SDS011;34485;51.536;3.816;2023-11-21T04:25:58;70.32;;;9.93;;
48685;SDS011;34485;51.536;3.816;2023-11-21T04:28:24;89.53;;;10.52;;
48685;SDS011;34485;51.536;3.816;2023-11-21T04:30:50;100.07;;;9.33;;
48685;SDS011;34485;51.536;3.816;2023-11-21T04:33:16;57.25;;;8.70;;
48685;SDS011;34485;51.536;3.816;2023-11-21T04:35:42;44.75;;;7.32;;
48685;SDS011;34485;51.536;3.816;2023-11-21T04:38:07;67.83;;;8.90;;
48685;SDS011;34485;51.536;3.816;2023-11-21T04:40:33;95.88;;;9.40;;
48685;SDS011;34485;51.536;3.816;2023-11-21T04:42:59;95.40;;;8.50;;
48685;SDS011;34485;51.536;3.816;2023-11-21T04:45:24;83.03;;;10.32;;
48685;SDS011;34485;51.536;3.816;2023-11-21T04:47:50;55.83;;;7.20;;
48685;SDS011;34485;51.536;3.816;2023-11-21T04:50:17;46.60;;;7.18;;
48685;SDS011;34485;51.536;3.816;2023-11-21T04:52:44;48.20;;;7.72;;
48685;SDS011;34485;51.536;3.816;2023-11-21T04:55:09;50.27;;;6.90;;
48685;SDS011;34485;51.536;3.816;2023-11-21T05:00:04;61.57;;;7.67;;
48685;SDS011;34485;51.536;3.816;2023-11-21T05:02:31;48.35;;;7.25;;
48685;SDS011;34485;51.536;3.816;2023-11-21T05:04:59;44.78;;;6.97;;
48685;SDS011;34485;51.536;3.816;2023-11-21T05:07:25;68.00;;;8.38;;
48685;SDS011;34485;51.536;3.816;2023-11-21T05:09:54;66.78;;;7.65;;
48685;SDS011;34485;51.536;3.816;2023-11-21T05:12:21;46.60;;;5.87;;
48685;SDS011;34485;51.536;3.816;2023-11-21T05:14:50;28.20;;;5.55;;
48685;SDS011;34485;51.536;3.816;2023-11-21T05:17:16;29.00;;;5.30;;
48685;SDS011;34485;51.536;3.816;2023-11-21T05:19:42;28.80;;;5.93;;
48685;SDS011;34485;51.536;3.816;2023-11-21T05:22:10;31.88;;;5.30;;
48685;SDS011;34485;51.536;3.816;2023-11-21T05:24:37;39.88;;;6.22;;
48685;SDS011;34485;51.536;3.816;2023-11-21T05:27:04;108.70;;;22.35;;
48685;SDS011;34485;51.536;3.816;2023-11-21T05:29:29;30.33;;;6.10;;
48685;SDS011;34485;51.536;3.816;2023-11-21T05:31:56;31.27;;;5.88;;
48685;SDS011;34485;51.536;3.816;2023-11-21T05:34:21;112.65;;;18.25;;
48685;SDS011;34485;51.536;3.816;2023-11-21T05:36:49;25.75;;;5.82;;
48685;SDS011;34485;51.536;3.816;2023-11-21T05:39:15;24.35;;;5.32;;
48685;SDS011;34485;51.536;3.816;2023-11-21T05:41:42;31.27;;;5.40;;
48685;SDS011;34485;51.536;3.816;2023-11-21T05:44:08;26.75;;;5.22;;
48685;SDS011;34485;51.536;3.816;2023-11-21T05:46:34;25.50;;;5.45;;
48685;SDS011;34485;51.536;3.816;2023-11-21T05:49:00;28.10;;;9.37;;
48685;SDS011;34485;51.536;3.816;2023-11-21T05:51:25;39.05;;;5.88;;
48685;SDS011;34485;51.536;3.816;2023-11-21T05:53:51;26.07;;;6.43;;
48685;SDS011;34485;51.536;3.816;2023-11-21T05:56:17;29.05;;;6.22;;
48685;SDS011;34485;51.536;3.816;2023-11-21T05:58:43;25.50;;;6.43;;
48685;SDS011;34485;51.536;3.816;2023-11-21T06:01:08;23.35;;;4.80;;
48685;SDS011;34485;51.536;3.816;2023-11-21T06:03:37;21.10;;;5.20;;
48685;SDS011;34485;51.536;3.816;2023-11-21T06:06:03;22.20;;;5.27;;
48685;SDS011;34485;51.536;3.816;2023-11-21T06:08:29;9.65;;;4.65;;
48685;SDS011;34485;51.536;3.816;2023-11-21T06:10:55;15.48;;;3.75;;
48685;SDS011;34485;51.536;3.816;2023-11-21T06:13:21;7.30;;;4.37;;
48685;SDS011;34485;51.536;3.816;2023-11-21T06:15:49;6.25;;;3.25;;
48685;SDS011;34485;51.536;3.816;2023-11-21T06:18:15;4.18;;;2.63;;
48685;SDS011;34485;51.536;3.816;2023-11-21T06:20:44;3.38;;;2.53;;
48685;SDS011;34485;51.536;3.816;2023-11-21T06:23:13;5.40;;;2.40;;
48685;SDS011;34485;51.536;3.816;2023-11-21T06:25:39;6.22;;;2.60;;
48685;SDS011;34485;51.536;3.816;2023-11-21T06:28:05;5.55;;;3.28;;
48685;SDS011;34485;51.536;3.816;2023-11-21T06:30:31;7.17;;;2.50;;
48685;SDS011;34485;51.536;3.816;2023-11-21T06:32:57;6.45;;;3.25;;
48685;SDS011;34485;51.536;3.816;2023-11-21T06:35:22;2.38;;;2.28;;
48685;SDS011;34485;51.536;3.816;2023-11-21T06:37:48;2.43;;;2.17;;
48685;SDS011;34485;51.536;3.816;2023-11-21T06:40:14;2.13;;;2.00;;
48685;SDS011;34485;51.536;3.816;2023-11-21T06:42:40;2.33;;;2.22;;
48685;SDS011;34485;51.536;3.816;2023-11-21T06:45:06;3.10;;;2.30;;
48685;SDS011;34485;51.536;3.816;2023-11-21T06:47:33;2.25;;;2.15;;
48685;SDS011;34485;51.536;3.816;2023-11-21T06:49:59;2.72;;;2.00;;
48685;SDS011;34485;51.536;3.816;2023-11-21T06:52:25;3.60;;;1.70;;
48685;SDS011;34485;51.536;3.816;2023-11-21T06:54:51;1.80;;;1.70;;
48685;SDS011;34485;51.536;3.816;2023-11-21T06:57:17;2.53;;;2.43;;
48685;SDS011;34485;51.536;3.816;2023-11-21T06:59:42;3.53;;;1.80;;
48685;SDS011;34485;51.536;3.816;2023-11-21T07:02:09;1.75;;;1.65;;
48685;SDS011;34485;51.536;3.816;2023-11-21T07:04:37;2.25;;;2.15;;
48685;SDS011;34485;51.536;3.816;2023-11-21T07:07:03;1.40;;;1.30;;
48685;SDS011;34485;51.536;3.816;2023-11-21T07:09:29;1.55;;;1.45;;
48685;SDS011;34485;51.536;3.816;2023-11-21T07:11:56;3.13;;;1.83;;
48685;SDS011;34485;51.536;3.816;2023-11-21T07:14:22;3.85;;;1.95;;
48685;SDS011;34485;51.536;3.816;2023-11-21T07:16:47;3.50;;;2.20;;
48685;SDS011;34485;51.536;3.816;2023-11-21T07:19:13;5.82;;;2.00;;
48685;SDS011;34485;51.536;3.816;2023-11-21T07:21:39;2.47;;;2.27;;
48685;SDS011;34485;51.536;3.816;2023-11-21T07:24:06;4.90;;;1.90;;
48685;SDS011;34485;51.536;3.816;2023-11-21T07:26:33;2.45;;;2.28;;
48685;SDS011;34485;51.536;3.816;2023-11-21T07:28:59;3.95;;;1.60;;
48685;SDS011;34485;51.536;3.816;2023-11-21T07:31:26;4.20;;;1.92;;
48685;SDS011;34485;51.536;3.816;2023-11-21T07:33:52;1.63;;;1.53;;
48685;SDS011;34485;51.536;3.816;2023-11-21T07:36:19;4.13;;;1.88;;
48685;SDS011;34485;51.536;3.816;2023-11-21T07:38:46;3.75;;;2.00;;
48685;SDS011;34485;51.536;3.816;2023-11-21T07:41:13;2.88;;;2.05;;
48685;SDS011;34485;51.536;3.816;2023-11-21T07:43:42;3.60;;;2.35;;
48685;SDS011;34485;51.536;3.816;2023-11-21T07:46:09;2.77;;;2.17;;
48685;SDS011;34485;51.536;3.816;2023-11-21T07:48:37;3.63;;;2.08;;
48685;SDS011;34485;51.536;3.816;2023-11-21T07:51:03;6.35;;;1.85;;
48685;SDS011;34485;51.536;3.816;2023-11-21T07:53:29;5.23;;;2.00;;
48685;SDS011;34485;51.536;3.816;2023-11-21T07:55:58;6.38;;;1.83;;
48685;SDS011;34485;51.536;3.816;2023-11-21T07:58:28;4.93;;;2.20;;
48685;SDS011;34485;51.536;3.816;2023-11-21T08:00:54;3.70;;;2.37;;
48685;SDS011;34485;51.536;3.816;2023-11-21T08:03:19;4.43;;;2.13;;
48685;SDS011;34485;51.536;3.816;2023-11-21T08:05:46;4.53;;;1.93;;
48685;SDS011;34485;51.536;3.816;2023-11-21T08:08:11;5.20;;;2.00;;
48685;SDS011;34485;51.536;3.816;2023-11-21T08:10:37;3.93;;;1.70;;
48685;SDS011;34485;51.536;3.816;2023-11-21T08:13:03;2.47;;;1.70;;
48685;SDS011;34485;51.536;3.816;2023-11-21T08:15:29;7.70;;;2.20;;
48685;SDS011;34485;51.536;3.816;2023-11-21T08:17:57;5.78;;;2.00;;
48685;SDS011;34485;51.536;3.816;2023-11-21T08:20:24;2.77;;;2.33;;
48685;SDS011;34485;51.536;3.816;2023-11-21T08:22:50;2.40;;;2.20;;
48685;SDS011;34485;51.536;3.816;2023-11-21T08:25:17;8.75;;;2.22;;
48685;SDS011;34485;51.536;3.816;2023-11-21T08:27:45;3.65;;;1.75;;
48685;SDS011;34485;51.536;3.816;2023-11-21T08:30:11;7.78;;;2.58;;
48685;SDS011;34485;51.536;3.816;2023-11-21T08:32:39;4.60;;;1.97;;
48685;SDS011;34485;51.536;3.816;2023-11-21T08:35:04;9.82;;;2.78;;
48685;SDS011;34485;51.536;3.816;2023-11-21T08:37:31;3.78;;;2.50;;
48685;SDS011;34485;51.536;3.816;2023-11-21T08:39:58;9.55;;;2.92;;
48685;SDS011;34485;51.536;3.816;2023-11-21T08:42:28;4.73;;;2.70;;
48685;SDS011;34485;51.536;3.816;2023-11-21T08:44:55;3.00;;;2.80;;
48685;SDS011;34485;51.536;3.816;2023-11-21T08:47:22;4.78;;;2.78;;
48685;SDS011;34485;51.536;3.816;2023-11-21T08:49:50;7.53;;;3.35;;
48685;SDS011;34485;51.536;3.816;2023-11-21T08:52:18;3.83;;;3.53;;
48685;SDS011;34485;51.536;3.816;2023-11-21T08:54:47;10.03;;;3.27;;
48685;SDS011;34485;51.536;3.816;2023-11-21T08:57:24;6.80;;;3.40;;
48685;SDS011;34485;51.536;3.816;2023-11-21T08:59:50;6.70;;;3.42;;
48685;SDS011;34485;51.536;3.816;2023-11-21T09:02:21;3.55;;;3.25;;
48685;SDS011;34485;51.536;3.816;2023-11-21T09:04:49;7.18;;;3.35;;
48685;SDS011;34485;51.536;3.816;2023-11-21T09:07:17;5.10;;;3.23;;
48685;SDS011;34485;51.536;3.816;2023-11-21T09:09:46;4.55;;;3.38;;
48685;SDS011;34485;51.536;3.816;2023-11-21T09:12:13;4.28;;;3.22;;
48685;SDS011;34485;51.536;3.816;2023-11-21T09:14:38;5.40;;;3.20;;
48685;SDS011;34485;51.536;3.816;2023-11-21T09:17:04;5.63;;;2.43;;
48685;SDS011;34485;51.536;3.816;2023-11-21T09:19:36;7.07;;;3.38;;
48685;SDS011;34485;51.536;3.816;2023-11-21T09:22:02;7.65;;;3.78;;
48685;SDS011;34485;51.536;3.816;2023-11-21T09:24:28;2.37;;;2.17;;
48685;SDS011;34485;51.536;3.816;2023-11-21T09:26:54;5.43;;;2.53;;
48685;SDS011;34485;51.536;3.816;2023-11-21T09:29:19;4.50;;;2.43;;
48685;SDS011;34485;51.536;3.816;2023-11-21T09:31:45;4.13;;;1.98;;
48685;SDS011;34485;51.536;3.816;2023-11-21T09:34:10;3.87;;;2.80;;
48685;SDS011;34485;51.536;3.816;2023-11-21T09:36:36;2.67;;;1.95;;
48685;SDS011;34485;51.536;3.816;2023-11-21T09:39:04;4.03;;;2.83;;
48685;SDS011;34485;51.536;3.816;2023-11-21T09:41:57;5.63;;;2.50;;
48685;SDS011;34485;51.536;3.816;2023-11-21T09:44:51;3.22;;;1.92;;
48685;SDS011;34485;51.536;3.816;2023-11-21T09:47:26;3.58;;;2.35;;
48685;SDS011;34485;51.536;3.816;2023-11-21T09:49:53;3.33;;;2.03;;
48685;SDS011;34485;51.536;3.816;2023-11-21T09:52:24;2.92;;;2.25;;
48685;SDS011;34485;51.536;3.816;2023-11-21T09:54:52;2.50;;;1.93;;
48685;SDS011;34485;51.536;3.816;2023-11-21T09:57:19;7.03;;;2.45;;
48685;SDS011;34485;51.536;3.816;2023-11-21T09:59:53;3.10;;;2.40;;
48685;SDS011;34485;51.536;3.816;2023-11-21T10:02:27;3.55;;;1.95;;
48685;SDS011;34485;51.536;3.816;2023-11-21T10:04:55;6.30;;;2.08;;
48685;SDS011;34485;51.536;3.816;2023-11-21T10:07:21;3.83;;;2.63;;
48685;SDS011;34485;51.536;3.816;2023-11-21T10:09:48;5.78;;;2.53;;
48685;SDS011;34485;51.536;3.816;2023-11-21T10:12:17;6.15;;;2.60;;
48685;SDS011;34485;51.536;3.816;2023-11-21T10:14:45;5.28;;;2.30;;
48685;SDS011;34485;51.536;3.816;2023-11-21T10:17:14;4.28;;;2.70;;
48685;SDS011;34485;51.536;3.816;2023-11-21T10:19:46;9.13;;;2.50;;
48685;SDS011;34485;51.536;3.816;2023-11-21T10:22:13;4.68;;;2.53;;
48685;SDS011;34485;51.536;3.816;2023-11-21T10:24:42;3.15;;;1.98;;
48685;SDS011;34485;51.536;3.816;2023-11-21T10:27:08;4.65;;;2.70;;
48685;SDS011;34485;51.536;3.816;2023-11-21T10:29:34;3.20;;;2.60;;
48685;SDS011;34485;51.536;3.816;2023-11-21T10:32:01;4.05;;;2.28;;
48685;SDS011;34485;51.536;3.816;2023-11-21T10:34:28;3.55;;;2.25;;
48685;SDS011;34485;51.536;3.816;2023-11-21T10:36:54;3.70;;;2.25;;
48685;SDS011;34485;51.536;3.816;2023-11-21T10:39:22;6.32;;;2.47;;
48685;SDS011;34485;51.536;3.816;2023-11-21T10:41:52;5.53;;;2.90;;
48685;SDS011;34485;51.536;3.816;2023-11-21T10:44:19;3.95;;;2.22;;
48685;SDS011;34485;51.536;3.816;2023-11-21T10:46:55;3.08;;;2.80;;
48685;SDS011;34485;51.536;3.816;2023-11-21T10:49:26;3.97;;;2.90;;
48685;SDS011;34485;51.536;3.816;2023-11-21T10:51:54;4.20;;;2.88;;
48685;SDS011;34485;51.536;3.816;2023-11-21T10:54:21;4.77;;;2.87;;
48685;SDS011;34485;51.536;3.816;2023-11-21T10:56:48;6.28;;;2.83;;
48685;SDS011;34485;51.536;3.816;2023-11-21T10:59:16;3.47;;;1.77;;
48685;SDS011;34485;51.536;3.816;2023-11-21T11:01:44;6.60;;;2.63;;
48685;SDS011;34485;51.536;3.816;2023-11-21T11:04:11;3.00;;;2.72;;
48685;SDS011;34485;51.536;3.816;2023-11-21T11:06:44;4.87;;;2.90;;
48685;SDS011;34485;51.536;3.816;2023-11-21T11:09:18;4.25;;;2.50;;
48685;SDS011;34485;51.536;3.816;2023-11-21T11:11:44;3.78;;;2.25;;
48685;SDS011;34485;51.536;3.816;2023-11-21T11:14:11;4.65;;;2.53;;
48685;SDS011;34485;51.536;3.816;2023-11-21T11:16:41;4.87;;;2.50;;
48685;SDS011;34485;51.536;3.816;2023-11-21T11:19:08;3.17;;;2.97;;
48685;SDS011;34485;51.536;3.816;2023-11-21T11:27:48;5.68;;;2.42;;
48685;SDS011;34485;51.536;3.816;2023-11-21T11:30:17;2.70;;;2.50;;
48685;SDS011;34485;51.536;3.816;2023-11-21T11:35:50;4.03;;;2.70;;
48685;SDS011;34485;51.536;3.816;2023-11-21T11:38:21;7.35;;;2.53;;
48685;SDS011;34485;51.536;3.816;2023-11-21T11:40:52;4.82;;;2.80;;
48685;SDS011;34485;51.536;3.816;2023-11-21T11:43:28;4.90;;;1.93;;
48685;SDS011;34485;51.536;3.816;2023-11-21T11:45:57;5.95;;;2.92;;
48685;SDS011;34485;51.536;3.816;2023-11-21T11:48:28;3.17;;;1.90;;
48685;SDS011;34485;51.536;3.816;2023-11-21T11:51:09;2.87;;;2.43;;
48685;SDS011;34485;51.536;3.816;2023-11-21T11:53:43;4.05;;;2.30;;
48685;SDS011;34485;51.536;3.816;2023-11-21T11:58:54;2.03;;;1.92;;
48685;SDS011;34485;51.536;3.816;2023-11-21T12:01:21;3.45;;;2.60;;
48685;SDS011;34485;51.536;3.816;2023-11-21T12:06:39;5.80;;;2.50;;
48685;SDS011;34485;51.536;3.816;2023-11-21T12:09:06;5.95;;;2.72;;
48685;SDS011;34485;51.536;3.816;2023-11-21T12:11:32;3.97;;;3.33;;
48685;SDS011;34485;51.536;3.816;2023-11-21T12:14:00;3.25;;;2.15;;
48685;SDS011;34485;51.536;3.816;2023-11-21T12:16:27;3.80;;;2.00;;
48685;SDS011;34485;51.536;3.816;2023-11-21T12:18:53;5.10;;;2.60;;
48685;SDS011;34485;51.536;3.816;2023-11-21T12:21:19;2.08;;;1.77;;
48685;SDS011;34485;51.536;3.816;2023-11-21T12:23:46;1.92;;;1.83;;
48685;SDS011;34485;51.536;3.816;2023-11-21T12:26:12;1.77;;;1.63;;
48685;SDS011;34485;51.536;3.816;2023-11-21T12:28:38;3.75;;;2.03;;
48685;SDS011;34485;51.536;3.816;2023-11-21T12:31:04;4.72;;;2.13;;
48685;SDS011;34485;51.536;3.816;2023-11-21T12:33:31;2.35;;;2.15;;
48685;SDS011;34485;51.536;3.816;2023-11-21T12:35:58;2.20;;;2.10;;
48685;SDS011;34485;51.536;3.816;2023-11-21T12:38:24;3.35;;;2.05;;
48685;SDS011;34485;51.536;3.816;2023-11-21T12:40:50;4.80;;;2.00;;
48685;SDS011;34485;51.536;3.816;2023-11-21T12:43:16;1.90;;;1.80;;
48685;SDS011;34485;51.536;3.816;2023-11-21T12:45:43;2.58;;;2.38;;
48685;SDS011;34485;51.536;3.816;2023-11-21T12:48:09;3.07;;;1.80;;
48685;SDS011;34485;51.536;3.816;2023-11-21T12:50:36;4.10;;;2.22;;
48685;SDS011;34485;51.536;3.816;2023-11-21T12:53:10;3.00;;;2.70;;
48685;SDS011;34485;51.536;3.816;2023-11-21T12:55:43;2.50;;;2.30;;
48685;SDS011;34485;51.536;3.816;2023-11-21T12:58:14;3.10;;;2.72;;
48685;SDS011;34485;51.536;3.816;2023-11-21T13:00:44;3.20;;;1.97;;
48685;SDS011;34485;51.536;3.816;2023-11-21T13:03:14;3.42;;;1.83;;
48685;SDS011;34485;51.536;3.816;2023-11-21T13:05:49;3.00;;;2.80;;
48685;SDS011;34485;51.536;3.816;2023-11-21T13:08:20;4.53;;;2.50;;
48685;SDS011;34485;51.536;3.816;2023-11-21T13:10:48;2.80;;;2.60;;
48685;SDS011;34485;51.536;3.816;2023-11-21T13:13:19;4.20;;;2.60;;
48685;SDS011;34485;51.536;3.816;2023-11-21T13:15:55;3.03;;;2.03;;
48685;SDS011;34485;51.536;3.816;2023-11-21T13:18:21;4.88;;;2.42;;
48685;SDS011;34485;51.536;3.816;2023-11-21T13:20:52;3.20;;;2.35;;
48685;SDS011;34485;51.536;3.816;2023-11-21T13:23:19;2.67;;;2.30;;
48685;SDS011;34485;51.536;3.816;2023-11-21T13:25:45;4.53;;;2.67;;
48685;SDS011;34485;51.536;3.816;2023-11-21T13:28:12;6.25;;;2.47;;
48685;SDS011;34485;51.536;3.816;2023-11-21T13:30:40;2.78;;;2.58;;
48685;SDS011;34485;51.536;3.816;2023-11-21T13:33:07;7.13;;;2.85;;
48685;SDS011;34485;51.536;3.816;2023-11-21T13:35:34;3.00;;;2.73;;
48685;SDS011;34485;51.536;3.816;2023-11-21T13:38:10;3.03;;;2.70;;
48685;SDS011;34485;51.536;3.816;2023-11-21T13:40:37;4.63;;;3.92;;
48685;SDS011;34485;51.536;3.816;2023-11-21T13:43:15;5.22;;;3.03;;
48685;SDS011;34485;51.536;3.816;2023-11-21T13:45:43;3.63;;;3.08;;
48685;SDS011;34485;51.536;3.816;2023-11-21T13:48:10;3.43;;;3.03;;
48685;SDS011;34485;51.536;3.816;2023-11-21T13:50:39;3.95;;;2.72;;
48685;SDS011;34485;51.536;3.816;2023-11-21T13:53:13;3.22;;;2.92;;
48685;SDS011;34485;51.536;3.816;2023-11-21T13:55:49;4.25;;;2.70;;
48685;SDS011;34485;51.536;3.816;2023-11-21T13:58:16;3.67;;;2.88;;
48685;SDS011;34485;51.536;3.816;2023-11-21T14:00:48;3.37;;;3.07;;
48685;SDS011;34485;51.536;3.816;2023-11-21T14:03:21;6.78;;;3.60;;
48685;SDS011;34485;51.536;3.816;2023-11-21T14:06:02;3.38;;;2.60;;
48685;SDS011;34485;51.536;3.816;2023-11-21T14:08:34;3.97;;;3.22;;
48685;SDS011;34485;51.536;3.816;2023-11-21T14:10:59;3.38;;;2.75;;
48685;SDS011;34485;51.536;3.816;2023-11-21T14:13:25;5.27;;;3.20;;
48685;SDS011;34485;51.536;3.816;2023-11-21T14:15:52;3.45;;;3.00;;
48685;SDS011;34485;51.536;3.816;2023-11-21T14:18:24;3.78;;;3.47;;
48685;SDS011;34485;51.536;3.816;2023-11-21T14:21:00;3.00;;;2.80;;
48685;SDS011;34485;51.536;3.816;2023-11-21T14:23:26;3.13;;;2.83;;
48685;SDS011;34485;51.536;3.816;2023-11-21T14:25:53;4.40;;;2.53;;
48685;SDS011;34485;51.536;3.816;2023-11-21T14:28:19;3.77;;;2.67;;
48685;SDS011;34485;51.536;3.816;2023-11-21T14:30:48;3.88;;;3.38;;
48685;SDS011;34485;51.536;3.816;2023-11-21T14:33:13;3.58;;;3.28;;
48685;SDS011;34485;51.536;3.816;2023-11-21T14:35:41;4.07;;;2.93;;
48685;SDS011;34485;51.536;3.816;2023-11-21T14:38:08;3.75;;;3.00;;
48685;SDS011;34485;51.536;3.816;2023-11-21T14:40:35;3.88;;;3.58;;
48685;SDS011;34485;51.536;3.816;2023-11-21T14:43:01;3.28;;;2.97;;
48685;SDS011;34485;51.536;3.816;2023-11-21T14:45:30;4.70;;;4.28;;
48685;SDS011;34485;51.536;3.816;2023-11-21T14:47:56;3.60;;;3.30;;
48685;SDS011;34485;51.536;3.816;2023-11-21T14:50:31;5.60;;;3.95;;
48685;SDS011;34485;51.536;3.816;2023-11-21T14:53:14;4.38;;;3.97;;
48685;SDS011;34485;51.536;3.816;2023-11-21T14:55:40;4.95;;;4.28;;
48685;SDS011;34485;51.536;3.816;2023-11-21T14:58:15;4.30;;;3.90;;
48685;SDS011;34485;51.536;3.816;2023-11-21T15:00:50;9.25;;;4.53;;
48685;SDS011;34485;51.536;3.816;2023-11-21T15:03:22;5.47;;;4.72;;
48685;SDS011;34485;51.536;3.816;2023-11-21T15:06:08;4.45;;;4.03;;
48685;SDS011;34485;51.536;3.816;2023-11-21T15:08:48;4.60;;;4.20;;
48685;SDS011;34485;51.536;3.816;2023-11-21T15:11:40;4.73;;;4.33;;
48685;SDS011;34485;51.536;3.816;2023-11-21T15:14:06;4.65;;;4.30;;
48685;SDS011;34485;51.536;3.816;2023-11-21T15:16:35;5.13;;;4.35;;